createdAt,value
2023-05-23T00:00:11.800Z,100.00
2023-05-23T00:02:44.853Z,100.00
2023-05-23T00:05:12.798Z,100.00
2023-05-23T00:07:40.876Z,100.00
2023-05-23T00:10:10.474Z,100.00
2023-05-23T00:12:42.377Z,100.00
2023-05-23T00:15:10.245Z,100.00
2023-05-23T00:17:39.774Z,100.00
2023-05-23T00:20:17.088Z,100.00
2023-05-23T00:22:46.359Z,100.00
2023-05-23T00:25:13.387Z,100.00
2023-05-23T00:27:40.695Z,100.00
2023-05-23T00:30:09.689Z,100.00
2023-05-23T00:32:37.256Z,100.00
2023-05-23T00:35:08.153Z,100.00
2023-05-23T00:37:35.431Z,100.00
2023-05-23T00:40:02.527Z,100.00
2023-05-23T00:42:29.617Z,100.00
2023-05-23T00:44:56.779Z,100.00
2023-05-23T00:47:24.017Z,100.00
2023-05-23T00:49:51.249Z,100.00
2023-05-23T00:52:18.691Z,100.00
2023-05-23T00:54:47.159Z,100.00
2023-05-23T00:57:14.348Z,100.00
2023-05-23T00:59:41.706Z,100.00
2023-05-23T01:02:09.627Z,100.00
2023-05-23T01:04:37.085Z,100.00
2023-05-23T01:07:04.200Z,100.00
2023-05-23T01:09:32.192Z,100.00
2023-05-23T01:12:27.221Z,100.00
2023-05-23T01:15:04.061Z,100.00
2023-05-23T01:17:56.196Z,100.00
2023-05-23T01:20:54.885Z,100.00
2023-05-23T01:23:32.023Z,100.00
2023-05-23T01:26:45.900Z,100.00
2023-05-23T01:29:20.582Z,100.00
2023-05-23T01:31:53.406Z,100.00
2023-05-23T01:34:21.911Z,100.00
2023-05-23T01:36:55.159Z,100.00
2023-05-23T01:39:23.126Z,100.00
2023-05-23T01:41:51.535Z,100.00
2023-05-23T01:44:20.937Z,100.00
2023-05-23T01:46:48.883Z,100.00
2023-05-23T01:49:18.693Z,100.00
2023-05-23T01:51:46.557Z,100.00
2023-05-23T01:54:17.072Z,100.00
2023-05-23T01:56:44.812Z,100.00
2023-05-23T01:59:12.888Z,100.00
2023-05-23T02:01:40.942Z,100.00
2023-05-23T02:04:08.008Z,100.00
2023-05-23T02:06:35.041Z,100.00
2023-05-23T02:09:02.556Z,100.00
2023-05-23T02:11:32.014Z,100.00
2023-05-23T02:13:58.972Z,100.00
2023-05-23T02:16:26.578Z,100.00
2023-05-23T02:18:56.567Z,100.00
2023-05-23T02:21:24.665Z,100.00
2023-05-23T02:23:51.755Z,100.00
2023-05-23T02:26:19.192Z,100.00
2023-05-23T02:28:46.612Z,100.00
2023-05-23T02:31:17.242Z,100.00
2023-05-23T02:33:44.598Z,100.00
2023-05-23T02:36:11.955Z,100.00
2023-05-23T02:38:39.122Z,100.00
2023-05-23T02:41:06.232Z,100.00
2023-05-23T02:43:34.038Z,100.00
2023-05-23T02:46:02.154Z,100.00
2023-05-23T02:48:29.604Z,100.00
2023-05-23T02:50:56.745Z,100.00
2023-05-23T02:53:23.800Z,100.00
2023-05-23T02:55:51.261Z,100.00
2023-05-23T02:58:19.141Z,100.00
2023-05-23T03:00:46.243Z,100.00
2023-05-23T03:03:13.632Z,100.00
2023-05-23T03:05:40.942Z,100.00
2023-05-23T03:08:08.885Z,100.00
2023-05-23T03:10:38.731Z,100.00
2023-05-23T03:13:05.853Z,100.00
2023-05-23T03:15:33.193Z,100.00
2023-05-23T03:18:00.814Z,100.00
2023-05-23T03:20:27.968Z,100.00
2023-05-23T03:22:55.197Z,100.00
2023-05-23T03:25:23.840Z,100.00
2023-05-23T03:27:50.985Z,100.00
2023-05-23T03:30:18.245Z,100.00
2023-05-23T03:32:45.611Z,100.00
2023-05-23T03:35:12.917Z,100.00
2023-05-23T03:37:40.303Z,100.00
2023-05-23T03:40:08.514Z,100.00
2023-05-23T03:42:38.597Z,100.00
2023-05-23T03:45:09.088Z,100.00
2023-05-23T03:47:36.642Z,100.00
2023-05-23T03:50:03.988Z,100.00
2023-05-23T03:52:31.527Z,100.00
2023-05-23T03:54:58.625Z,100.00
2023-05-23T03:57:25.744Z,100.00
2023-05-23T03:59:53.145Z,100.00
2023-05-23T04:02:22.251Z,100.00
2023-05-23T04:04:49.421Z,100.00
2023-05-23T04:07:16.818Z,100.00
2023-05-23T04:09:44.775Z,100.00
2023-05-23T04:12:13.176Z,100.00
2023-05-23T04:14:40.306Z,100.00
2023-05-23T04:17:09.215Z,100.00
2023-05-23T04:19:36.777Z,100.00
2023-05-23T04:22:03.981Z,100.00
2023-05-23T04:24:31.253Z,100.00
2023-05-23T04:26:59.361Z,100.00
2023-05-23T04:29:26.584Z,100.00
2023-05-23T04:31:55.015Z,100.00
2023-05-23T04:34:22.433Z,100.00
2023-05-23T04:36:49.810Z,100.00
2023-05-23T04:39:17.171Z,100.00
2023-05-23T04:42:01.595Z,100.00
2023-05-23T04:44:57.389Z,100.00
2023-05-23T04:47:42.078Z,100.00
2023-05-23T04:50:11.371Z,100.00
2023-05-23T04:52:41.537Z,100.00
2023-05-23T04:55:10.125Z,100.00
2023-05-23T04:57:38.063Z,100.00
2023-05-23T05:00:10.766Z,100.00
2023-05-23T05:02:39.199Z,100.00
2023-05-23T05:05:07.449Z,100.00
2023-05-23T05:07:36.600Z,100.00
2023-05-23T05:10:04.960Z,100.00
2023-05-23T05:12:34.494Z,100.00
2023-05-23T05:15:03.460Z,100.00
2023-05-23T05:17:30.783Z,100.00
2023-05-23T05:20:08.569Z,100.00
2023-05-23T05:22:40.222Z,100.00
2023-05-23T05:25:08.947Z,100.00
2023-05-23T05:27:38.195Z,100.00
2023-05-23T05:30:10.260Z,100.00
2023-05-23T05:32:48.471Z,100.00
2023-05-23T05:35:16.885Z,100.00
2023-05-23T05:37:45.310Z,100.00
2023-05-23T05:40:13.439Z,100.00
2023-05-23T05:42:42.916Z,100.00
2023-05-23T05:45:11.553Z,100.00
2023-05-23T05:47:39.934Z,100.00
2023-05-23T05:50:09.462Z,100.00
2023-05-23T05:52:39.797Z,100.00
2023-05-23T05:55:11.572Z,100.00
2023-05-23T05:57:41.321Z,100.00
2023-05-23T06:00:14.887Z,100.00
2023-05-23T06:02:55.105Z,100.00
2023-05-23T06:05:32.891Z,100.00
2023-05-23T06:08:01.250Z,100.00
2023-05-23T06:10:28.370Z,100.00
2023-05-23T06:12:55.845Z,100.00
2023-05-23T06:15:22.845Z,100.00
2023-05-23T06:17:51.482Z,100.00
2023-05-23T06:20:18.911Z,100.00
2023-05-23T06:22:47.651Z,100.00
2023-05-23T06:25:14.738Z,100.00
2023-05-23T06:27:41.763Z,100.00
2023-05-23T06:30:09.588Z,100.00
2023-05-23T06:32:36.871Z,100.00
2023-05-23T06:35:04.563Z,100.00
2023-05-23T06:37:34.756Z,100.00
2023-05-23T06:40:01.954Z,100.00
2023-05-23T06:42:29.428Z,100.00
2023-05-23T06:45:14.254Z,100.00
2023-05-23T06:47:45.373Z,100.00
2023-05-23T06:50:12.533Z,100.00
2023-05-23T06:52:39.589Z,100.00
2023-05-23T06:55:07.307Z,100.00
2023-05-23T06:57:34.658Z,100.00
2023-05-23T07:00:02.240Z,100.00
2023-05-23T07:02:30.526Z,100.00
2023-05-23T07:04:57.755Z,100.00
2023-05-23T07:07:44.658Z,100.00
2023-05-23T07:10:11.977Z,100.00
2023-05-23T07:12:39.204Z,100.00
2023-05-23T07:15:07.435Z,100.00
2023-05-23T07:17:36.250Z,100.00
2023-05-23T07:20:04.712Z,100.00
2023-05-23T07:22:33.578Z,100.00
2023-05-23T07:25:00.715Z,100.00
2023-05-23T07:27:31.550Z,100.00
2023-05-23T07:29:58.620Z,100.00
2023-05-23T07:32:25.802Z,100.00
2023-05-23T07:34:53.288Z,100.00
2023-05-23T07:37:20.370Z,100.00
2023-05-23T07:39:47.608Z,100.00
2023-05-23T07:42:14.669Z,100.00
2023-05-23T07:44:42.124Z,100.00
2023-05-23T07:47:09.922Z,100.00
2023-05-23T07:49:37.047Z,100.00
2023-05-23T07:52:05.225Z,100.00
2023-05-23T07:54:33.651Z,100.00
2023-05-23T07:57:02.528Z,100.00
2023-05-23T07:59:30.278Z,100.00
2023-05-23T08:01:58.332Z,100.00
2023-05-23T08:04:27.065Z,100.00
2023-05-23T08:07:05.134Z,100.00
2023-05-23T08:09:49.784Z,100.00
2023-05-23T08:12:19.516Z,100.00
2023-05-23T08:14:52.129Z,100.00
2023-05-23T08:17:38.399Z,100.00
2023-05-23T08:20:08.899Z,100.00
2023-05-23T08:22:36.279Z,100.00
2023-05-23T08:25:06.126Z,100.00
2023-05-23T08:27:36.790Z,100.00
2023-05-23T08:30:12.268Z,100.00
2023-05-23T08:32:39.622Z,100.00
2023-05-23T08:35:07.135Z,100.00
2023-05-23T08:37:34.336Z,100.00
2023-05-23T08:40:01.672Z,100.00
2023-05-23T08:42:39.038Z,100.00
2023-05-23T08:45:09.540Z,100.00
2023-05-23T08:47:39.024Z,100.00
2023-05-23T08:50:08.506Z,100.00
2023-05-23T08:52:45.938Z,100.00
2023-05-23T08:55:27.325Z,100.00
2023-05-23T08:57:56.218Z,100.00
2023-05-23T09:00:33.427Z,100.00
2023-05-23T09:03:00.744Z,100.00
2023-05-23T09:05:42.901Z,100.00
2023-05-23T09:08:10.715Z,100.00
2023-05-23T09:10:38.104Z,100.00
2023-05-23T09:13:06.431Z,100.00
2023-05-23T09:15:33.482Z,100.00
2023-05-23T09:18:04.703Z,100.00
2023-05-23T09:20:33.757Z,100.00
2023-05-23T09:23:07.505Z,100.00
2023-05-23T09:25:46.418Z,100.00
2023-05-23T09:28:14.192Z,100.00
2023-05-23T09:30:41.474Z,100.00
2023-05-23T09:33:08.744Z,100.00
2023-05-23T09:35:36.327Z,100.00
2023-05-23T09:38:03.801Z,100.00
2023-05-23T09:40:33.021Z,100.00
2023-05-23T09:43:07.391Z,100.00
2023-05-23T09:45:34.751Z,100.00
2023-05-23T09:48:02.683Z,100.00
2023-05-23T09:50:33.913Z,100.00
2023-05-23T09:53:02.437Z,100.00
2023-05-23T09:55:29.530Z,100.00
2023-05-23T09:57:59.917Z,100.00
2023-05-23T10:00:28.660Z,100.00
2023-05-23T10:03:14.106Z,100.00
2023-05-23T10:05:55.806Z,100.00
2023-05-23T10:08:27.383Z,100.00
2023-05-23T10:10:57.470Z,100.00
2023-05-23T10:13:28.957Z,100.00
2023-05-23T10:16:12.678Z,100.00
2023-05-23T10:18:49.530Z,100.00
2023-05-23T10:21:21.226Z,100.00
2023-05-23T10:23:49.185Z,100.00
2023-05-23T10:26:18.282Z,100.00
2023-05-23T10:28:47.488Z,100.00
2023-05-23T10:31:14.556Z,100.00
2023-05-23T10:33:50.374Z,100.00
2023-05-23T10:36:30.824Z,100.00
2023-05-23T10:39:10.145Z,100.00
2023-05-23T10:42:10.197Z,100.00
2023-05-23T10:44:37.199Z,100.00
2023-05-23T10:47:05.126Z,100.00
2023-05-23T10:49:42.031Z,100.00
2023-05-23T10:52:12.062Z,100.00
2023-05-23T10:54:49.236Z,100.00
2023-05-23T10:57:20.389Z,100.00
2023-05-23T10:59:51.077Z,100.00
2023-05-23T11:02:28.342Z,100.00
2023-05-23T11:05:25.058Z,100.00
2023-05-23T11:08:11.768Z,100.00
2023-05-23T11:11:01.172Z,100.00
2023-05-23T11:13:52.968Z,100.00
2023-05-23T11:16:40.193Z,100.00
2023-05-23T11:19:19.930Z,100.00
2023-05-23T11:21:52.462Z,100.00
2023-05-23T11:24:19.576Z,100.00
2023-05-23T11:27:03.982Z,100.00
2023-05-23T11:29:31.443Z,100.00
2023-05-23T11:31:58.698Z,100.00
2023-05-23T11:34:26.555Z,100.00
2023-05-23T11:36:56.306Z,100.00
2023-05-23T11:39:24.138Z,100.00
2023-05-23T11:42:03.345Z,100.00
2023-05-23T11:44:30.592Z,100.00
2023-05-23T11:47:06.993Z,100.00
2023-05-23T11:49:40.059Z,100.00
2023-05-23T11:52:07.629Z,100.00
2023-05-23T11:54:34.681Z,100.00
2023-05-23T11:57:02.701Z,100.00
2023-05-23T11:59:30.026Z,100.00
2023-05-23T12:01:59.624Z,100.00
2023-05-23T12:04:27.176Z,100.00
2023-05-23T12:06:54.388Z,100.00
2023-05-23T12:09:21.873Z,100.00
2023-05-23T12:11:49.921Z,100.00
2023-05-23T12:14:18.199Z,99.44
2023-05-23T12:16:46.981Z,100.00
2023-05-23T12:19:17.203Z,100.00
2023-05-23T12:21:47.473Z,100.00
2023-05-23T12:24:20.484Z,100.00
2023-05-23T12:26:56.551Z,100.00
2023-05-23T12:29:35.031Z,100.00
2023-05-23T12:32:05.152Z,100.00
2023-05-23T12:34:32.390Z,100.00
2023-05-23T12:37:18.015Z,94.27
2023-05-23T12:39:46.800Z,100.00
2023-05-23T12:42:13.990Z,100.00
2023-05-23T12:44:44.109Z,100.00
2023-05-23T12:47:11.269Z,100.00
2023-05-23T12:49:38.630Z,100.00
2023-05-23T12:52:06.005Z,100.00
2023-05-23T12:54:32.968Z,100.00
2023-05-23T12:57:00.041Z,100.00
2023-05-23T12:59:27.166Z,100.00
2023-05-23T13:01:54.990Z,100.00
2023-05-23T13:04:22.134Z,100.00
2023-05-23T13:06:49.198Z,100.00
2023-05-23T13:09:16.182Z,100.00
2023-05-23T13:11:43.370Z,100.00
2023-05-23T13:14:10.716Z,100.00
2023-05-23T13:16:39.209Z,100.00
2023-05-23T13:19:06.605Z,100.00
2023-05-23T13:21:33.699Z,100.00
2023-05-23T13:24:00.721Z,100.00
2023-05-23T13:26:27.697Z,100.00
2023-05-23T13:28:54.727Z,100.00
2023-05-23T13:31:24.073Z,100.00
2023-05-23T13:33:51.524Z,100.00
2023-05-23T13:36:18.538Z,100.00
2023-05-23T13:38:45.598Z,100.00
2023-05-23T13:41:12.609Z,100.00
2023-05-23T13:43:43.148Z,100.00
2023-05-23T13:46:10.580Z,100.00
2023-05-23T13:48:37.746Z,100.00
2023-05-23T13:51:05.341Z,96.08
2023-05-23T13:53:32.309Z,90.43
2023-05-23T13:55:59.401Z,89.50
2023-05-23T13:58:26.624Z,87.62
2023-05-23T14:00:54.193Z,83.08
2023-05-23T14:03:21.493Z,80.70
2023-05-23T14:05:48.708Z,78.89
2023-05-23T14:08:16.323Z,78.33
2023-05-23T14:10:43.885Z,79.53
2023-05-23T14:13:12.098Z,84.74
2023-05-23T14:15:39.725Z,80.17
2023-05-23T14:18:06.867Z,80.60
2023-05-23T14:20:33.924Z,81.60
2023-05-23T14:23:01.282Z,79.36
2023-05-23T14:25:28.296Z,81.42
2023-05-23T14:27:55.777Z,79.91
2023-05-23T14:30:23.643Z,77.31
2023-05-23T14:32:51.109Z,79.65
2023-05-23T14:35:18.243Z,72.13
2023-05-23T14:37:46.763Z,73.71
2023-05-23T14:40:16.204Z,81.99
2023-05-23T14:42:43.264Z,84.78
2023-05-23T14:45:11.034Z,94.78
2023-05-23T14:47:38.066Z,94.66
2023-05-23T14:50:05.996Z,91.42
2023-05-23T14:52:32.964Z,100.00
2023-05-23T14:55:01.056Z,100.00
2023-05-23T14:57:28.176Z,94.93
2023-05-23T14:59:56.254Z,93.10
2023-05-23T15:02:23.294Z,77.48
2023-05-23T15:04:50.665Z,88.80
2023-05-23T15:07:18.348Z,77.17
2023-05-23T15:09:46.106Z,74.29
2023-05-23T15:12:15.472Z,74.00
2023-05-23T15:14:43.540Z,77.23
2023-05-23T15:17:13.107Z,77.93
2023-05-23T15:19:42.833Z,77.72
2023-05-23T15:22:18.420Z,78.51
2023-05-23T15:25:00.447Z,78.25
2023-05-23T15:27:27.691Z,80.66
2023-05-23T15:29:54.753Z,81.64
2023-05-23T15:32:22.055Z,81.63
2023-05-23T15:34:49.519Z,84.07
2023-05-23T15:37:18.001Z,79.59
2023-05-23T15:39:45.521Z,78.09
2023-05-23T15:42:12.559Z,77.69
2023-05-23T15:44:39.773Z,82.84
2023-05-23T15:47:07.077Z,85.77
2023-05-23T15:49:34.965Z,80.64
2023-05-23T15:52:01.926Z,87.18
2023-05-23T15:54:29.181Z,85.97
2023-05-23T15:56:56.209Z,81.85
2023-05-23T15:59:23.223Z,87.17
2023-05-23T16:01:50.228Z,93.24
2023-05-23T16:04:17.433Z,91.45
2023-05-23T16:06:44.471Z,92.97
2023-05-23T16:09:11.708Z,100.00
2023-05-23T16:11:38.849Z,99.58
2023-05-23T16:14:06.451Z,97.84
2023-05-23T16:16:33.510Z,97.98
2023-05-23T16:19:00.571Z,97.84
2023-05-23T16:21:27.580Z,94.82
2023-05-23T16:23:54.592Z,96.72
2023-05-23T16:26:21.640Z,100.00
2023-05-23T16:28:48.622Z,98.62
2023-05-23T16:31:16.924Z,91.15
2023-05-23T16:33:47.293Z,93.86
2023-05-23T16:36:14.283Z,100.00
2023-05-23T16:38:41.465Z,100.00
2023-05-23T16:41:08.775Z,100.00
2023-05-23T16:43:36.602Z,100.00
2023-05-23T16:46:03.890Z,100.00
2023-05-23T16:48:31.397Z,100.00
2023-05-23T16:50:58.809Z,100.00
2023-05-23T16:53:28.373Z,100.00
2023-05-23T16:55:55.510Z,100.00
2023-05-23T16:58:22.697Z,99.54
2023-05-23T17:00:49.684Z,100.00
2023-05-23T17:03:16.867Z,100.00
2023-05-23T17:05:44.269Z,100.00
2023-05-23T17:08:11.505Z,100.00
2023-05-23T17:10:38.609Z,100.00
2023-05-23T17:13:05.751Z,100.00
2023-05-23T17:15:32.868Z,100.00
2023-05-23T17:18:00.318Z,100.00
2023-05-23T17:20:27.351Z,100.00
2023-05-23T17:22:55.232Z,100.00
2023-05-23T17:25:22.419Z,100.00
2023-05-23T17:27:49.466Z,100.00
2023-05-23T17:30:18.833Z,100.00
2023-05-23T17:32:47.172Z,100.00
2023-05-23T17:35:14.532Z,100.00
2023-05-23T17:37:43.906Z,100.00
2023-05-23T17:40:12.832Z,100.00
2023-05-23T17:42:41.577Z,100.00
2023-05-23T17:45:09.882Z,100.00
2023-05-23T17:47:37.207Z,100.00
2023-05-23T17:50:08.424Z,100.00
2023-05-23T17:52:35.789Z,100.00
2023-05-23T17:55:02.757Z,100.00
2023-05-23T17:57:33.161Z,100.00
2023-05-23T18:00:00.257Z,100.00
2023-05-23T18:02:27.862Z,100.00
2023-05-23T18:04:55.791Z,100.00
2023-05-23T18:07:22.824Z,100.00
2023-05-23T18:09:49.944Z,100.00
2023-05-23T18:12:17.841Z,100.00
2023-05-23T18:14:45.508Z,100.00
2023-05-23T18:17:13.133Z,100.00
2023-05-23T18:19:42.143Z,100.00
2023-05-23T18:22:09.604Z,100.00
2023-05-23T18:24:36.679Z,100.00
2023-05-23T18:27:04.648Z,100.00
2023-05-23T18:29:32.011Z,100.00
2023-05-23T18:31:59.025Z,100.00
2023-05-23T18:34:28.530Z,100.00
2023-05-23T18:36:56.189Z,100.00
2023-05-23T18:39:24.009Z,100.00
2023-05-23T18:41:51.045Z,100.00
2023-05-23T18:44:20.734Z,100.00
2023-05-23T18:46:48.263Z,100.00
2023-05-23T18:49:15.621Z,100.00
2023-05-23T18:51:42.989Z,100.00
2023-05-23T18:54:09.997Z,100.00
2023-05-23T18:56:37.183Z,100.00
2023-05-23T18:59:04.255Z,100.00
2023-05-23T19:01:31.352Z,100.00
2023-05-23T19:03:58.691Z,100.00
2023-05-23T19:06:26.781Z,100.00
2023-05-23T19:08:53.857Z,100.00
2023-05-23T19:11:21.918Z,100.00
2023-05-23T19:13:49.261Z,100.00
2023-05-23T19:16:17.515Z,100.00
2023-05-23T19:18:45.146Z,100.00
2023-05-23T19:21:12.822Z,100.00
2023-05-23T19:23:40.188Z,100.00
2023-05-23T19:26:07.739Z,100.00
2023-05-23T19:28:34.735Z,100.00
2023-05-23T19:31:02.162Z,100.00
2023-05-23T19:33:29.125Z,100.00
2023-05-23T19:35:56.147Z,100.00
2023-05-23T19:38:23.116Z,100.00
2023-05-23T19:40:50.102Z,100.00
2023-05-23T19:43:17.550Z,100.00
2023-05-23T19:45:44.928Z,100.00
2023-05-23T19:48:12.573Z,100.00
2023-05-23T19:50:40.993Z,100.00
2023-05-23T19:53:08.217Z,100.00
2023-05-23T19:55:35.701Z,100.00
2023-05-23T19:58:02.891Z,100.00
2023-05-23T20:00:29.991Z,100.00
2023-05-23T20:02:57.122Z,100.00
2023-05-23T20:05:29.416Z,100.00
2023-05-23T20:07:56.652Z,100.00
2023-05-23T20:10:25.275Z,100.00
2023-05-23T20:12:52.653Z,100.00
2023-05-23T20:15:31.312Z,100.00
2023-05-23T20:18:07.430Z,100.00
2023-05-23T20:20:34.594Z,100.00
2023-05-23T20:23:01.766Z,100.00
2023-05-23T20:25:28.786Z,100.00
2023-05-23T20:27:58.884Z,100.00
2023-05-23T20:30:34.438Z,100.00
2023-05-23T20:33:01.927Z,100.00
2023-05-23T20:35:28.923Z,100.00
2023-05-23T20:37:56.029Z,100.00
2023-05-23T20:40:23.116Z,100.00
2023-05-23T20:42:50.178Z,100.00
2023-05-23T20:45:17.332Z,100.00
2023-05-23T20:47:46.318Z,100.00
2023-05-23T20:50:13.668Z,100.00
2023-05-23T20:52:42.935Z,100.00
2023-05-23T20:55:10.866Z,100.00
2023-05-23T20:57:38.192Z,100.00
2023-05-23T21:00:13.166Z,100.00
2023-05-23T21:02:43.967Z,100.00
2023-05-23T21:05:12.529Z,100.00
2023-05-23T21:07:39.636Z,100.00
2023-05-23T21:10:07.231Z,100.00
2023-05-23T21:12:34.389Z,100.00
2023-05-23T21:15:01.519Z,100.00
2023-05-23T21:17:28.777Z,100.00
2023-05-23T21:19:55.824Z,100.00
2023-05-23T21:22:22.827Z,100.00
2023-05-23T21:24:50.489Z,100.00
2023-05-23T21:27:17.735Z,100.00
2023-05-23T21:29:47.094Z,100.00
2023-05-23T21:32:14.326Z,100.00
2023-05-23T21:34:41.788Z,100.00
2023-05-23T21:37:08.904Z,100.00
2023-05-23T21:39:49.960Z,100.00
2023-05-23T21:42:19.455Z,100.00
2023-05-23T21:44:46.643Z,100.00
2023-05-23T21:47:13.767Z,100.00
2023-05-23T21:49:40.796Z,100.00
2023-05-23T21:52:07.856Z,100.00
2023-05-23T21:54:35.101Z,100.00
2023-05-23T21:57:02.243Z,100.00
2023-05-23T21:59:29.300Z,100.00
2023-05-23T22:01:56.434Z,100.00
2023-05-23T22:04:23.532Z,100.00
2023-05-23T22:06:51.467Z,100.00
2023-05-23T22:09:18.651Z,100.00
2023-05-23T22:11:45.688Z,100.00
2023-05-23T22:14:13.120Z,100.00
2023-05-23T22:16:40.653Z,100.00
2023-05-23T22:19:12.487Z,100.00
2023-05-23T22:21:39.824Z,100.00
2023-05-23T22:24:07.342Z,100.00
2023-05-23T22:26:34.579Z,100.00
2023-05-23T22:29:02.146Z,100.00
2023-05-23T22:31:29.233Z,100.00
2023-05-23T22:33:56.998Z,100.00
2023-05-23T22:36:24.174Z,100.00
2023-05-23T22:38:51.170Z,100.00
2023-05-23T22:41:18.480Z,100.00
2023-05-23T22:43:46.742Z,100.00
2023-05-23T22:46:14.147Z,100.00
2023-05-23T22:48:41.427Z,100.00
2023-05-23T22:51:09.774Z,100.00
2023-05-23T22:53:36.960Z,100.00
2023-05-23T22:56:04.157Z,100.00
2023-05-23T22:58:31.320Z,100.00
2023-05-23T23:00:58.379Z,100.00
2023-05-23T23:03:25.457Z,100.00
2023-05-23T23:05:52.523Z,100.00
2023-05-23T23:08:19.763Z,100.00
2023-05-23T23:10:46.967Z,100.00
2023-05-23T23:13:14.217Z,100.00
2023-05-23T23:15:42.799Z,100.00
2023-05-23T23:18:10.219Z,100.00
2023-05-23T23:20:38.890Z,100.00
2023-05-23T23:23:06.036Z,100.00
2023-05-23T23:25:33.439Z,100.00
2023-05-23T23:28:00.835Z,100.00
2023-05-23T23:30:28.031Z,100.00
2023-05-23T23:32:55.104Z,100.00
2023-05-23T23:35:22.303Z,100.00
2023-05-23T23:37:49.317Z,100.00
2023-05-23T23:40:16.622Z,100.00
2023-05-23T23:42:43.642Z,100.00
2023-05-23T23:45:11.298Z,100.00
2023-05-23T23:47:38.347Z,100.00
2023-05-23T23:50:06.749Z,100.00
2023-05-23T23:52:33.859Z,100.00
2023-05-23T23:55:01.655Z,100.00
2023-05-23T23:57:28.693Z,100.00
2023-05-23T23:59:56.205Z,100.00
